createdAt,value
2023-01-18T03:59:13.714Z,987.05
2023-01-18T04:00:13.833Z,987.06
2023-01-18T04:01:15.066Z,987.09
2023-01-18T04:02:15.031Z,987.05
2023-01-18T04:03:15.384Z,987.02
2023-01-18T04:04:14.315Z,987.06
2023-01-18T04:05:15.594Z,987.04
2023-01-18T04:06:17.782Z,987.06
2023-01-18T04:07:14.715Z,987.06
2023-01-18T04:08:15.930Z,987.02
2023-01-18T04:09:16.958Z,987.05
2023-01-18T04:10:16.180Z,987.06
2023-01-18T04:11:16.411Z,987.08
2023-01-18T04:12:16.373Z,987.06
2023-01-18T04:13:16.713Z,987.10
2023-01-18T04:14:16.917Z,987.12
2023-01-18T04:15:16.757Z,987.10
2023-01-18T04:16:16.973Z,987.09
2023-01-18T04:17:16.051Z,987.10
2023-01-18T04:18:17.158Z,987.08
2023-01-18T04:19:17.410Z,987.10
2023-01-18T04:20:18.162Z,987.09
2023-01-18T04:21:16.639Z,987.12
2023-01-18T04:22:17.711Z,987.11
2023-01-18T04:23:17.936Z,987.14
2023-01-18T04:24:19.136Z,987.13
2023-01-18T04:25:17.099Z,987.10
2023-01-18T04:26:18.339Z,987.16
2023-01-18T04:27:19.097Z,987.15
2023-01-18T04:28:17.447Z,987.17
2023-01-18T04:29:17.600Z,987.19
2023-01-18T04:30:17.738Z,987.19
2023-01-18T04:31:17.873Z,987.21
2023-01-18T04:32:19.108Z,987.23
2023-01-18T04:33:18.125Z,987.20
2023-01-18T04:34:18.262Z,987.25
2023-01-18T04:35:18.418Z,987.24
2023-01-18T04:36:19.657Z,987.25
2023-01-18T04:37:20.473Z,987.29
2023-01-18T04:38:19.785Z,987.29
2023-01-18T04:39:18.948Z,987.30
2023-01-18T04:40:20.078Z,987.29
2023-01-18T04:41:20.812Z,987.29
2023-01-18T04:42:20.572Z,987.30
2023-01-18T04:43:20.504Z,987.29
2023-01-18T04:44:19.647Z,987.33
2023-01-18T04:45:20.774Z,987.30
2023-01-18T04:46:21.536Z,987.34
2023-01-18T04:47:21.766Z,987.31
2023-01-18T04:48:21.145Z,987.33
2023-01-18T04:49:21.347Z,987.36
2023-01-18T04:50:21.423Z,987.39
2023-01-18T04:51:21.515Z,987.37
2023-01-18T04:52:21.794Z,987.38
2023-01-18T04:53:21.773Z,987.39
2023-01-18T04:54:21.962Z,987.38
2023-01-18T04:55:21.031Z,987.40
2023-01-18T04:56:21.193Z,987.39
2023-01-18T04:57:22.965Z,987.43
2023-01-18T04:58:21.433Z,987.44
2023-01-18T04:59:21.571Z,987.44
2023-01-18T05:00:21.705Z,987.44
2023-01-18T05:01:23.530Z,987.44
2023-01-18T05:02:21.985Z,987.43
2023-01-18T05:03:22.083Z,987.42
2023-01-18T05:04:22.227Z,987.46
2023-01-18T05:05:22.365Z,987.45
2023-01-18T05:06:24.135Z,987.47
2023-01-18T05:07:23.891Z,987.49
2023-01-18T05:08:24.134Z,987.48
2023-01-18T05:09:22.920Z,987.51
2023-01-18T05:10:24.025Z,987.54
2023-01-18T05:11:24.156Z,987.50
2023-01-18T05:12:24.402Z,987.51
2023-01-18T05:13:24.485Z,987.55
2023-01-18T05:14:24.604Z,987.57
2023-01-18T05:15:24.665Z,987.59
2023-01-18T05:16:24.898Z,987.64
2023-01-18T05:17:25.112Z,987.66
2023-01-18T05:18:25.095Z,987.60
2023-01-18T05:19:25.277Z,987.62
2023-01-18T05:20:25.368Z,987.66
2023-01-18T05:21:26.621Z,987.66
2023-01-18T05:22:25.697Z,987.70
2023-01-18T05:23:26.973Z,987.73
2023-01-18T05:24:24.917Z,987.74
2023-01-18T05:25:26.031Z,987.71
2023-01-18T05:26:26.787Z,987.78
2023-01-18T05:27:26.307Z,987.73
2023-01-18T05:28:28.046Z,987.77
2023-01-18T05:29:26.551Z,987.77
2023-01-18T05:30:27.308Z,987.78
2023-01-18T05:31:27.596Z,987.74
2023-01-18T05:32:26.004Z,987.73
2023-01-18T05:33:27.735Z,987.75
2023-01-18T05:34:26.228Z,987.74
2023-01-18T05:35:26.340Z,987.75
2023-01-18T05:36:26.525Z,987.77
2023-01-18T05:37:26.558Z,987.78
2023-01-18T05:38:27.832Z,987.74
2023-01-18T05:39:29.053Z,987.77
2023-01-18T05:40:27.027Z,987.78
2023-01-18T05:41:28.802Z,987.79
2023-01-18T05:42:28.305Z,987.77
2023-01-18T05:43:29.100Z,987.74
2023-01-18T05:44:27.585Z,987.81
2023-01-18T05:45:27.717Z,987.80
2023-01-18T05:46:29.445Z,987.80
2023-01-18T05:47:27.959Z,987.79
2023-01-18T05:48:28.035Z,987.79
2023-01-18T05:49:29.185Z,987.83
2023-01-18T05:50:29.360Z,987.84
2023-01-18T05:51:29.491Z,987.82
2023-01-18T05:52:30.269Z,987.88
2023-01-18T05:53:28.771Z,987.83
2023-01-18T05:54:29.872Z,987.88
2023-01-18T05:55:30.044Z,987.86
2023-01-18T05:56:30.185Z,987.86
2023-01-18T05:57:30.970Z,987.91
2023-01-18T05:58:29.487Z,987.90
2023-01-18T05:59:29.640Z,987.92
2023-01-18T06:00:29.739Z,987.93
2023-01-18T06:01:29.928Z,987.98
2023-01-18T06:02:31.090Z,987.97
2023-01-18T06:03:30.158Z,987.96
2023-01-18T06:04:31.265Z,987.98
2023-01-18T06:05:30.395Z,987.94
2023-01-18T06:06:33.018Z,987.98
2023-01-18T06:07:30.685Z,987.98
2023-01-18T06:08:32.418Z,988.01
2023-01-18T06:09:30.960Z,987.99
2023-01-18T06:10:32.049Z,988.04
2023-01-18T06:11:31.193Z,988.05
2023-01-18T06:12:31.387Z,988.08
2023-01-18T06:13:33.146Z,988.08
2023-01-18T06:14:32.626Z,988.09
2023-01-18T06:15:31.743Z,988.07
2023-01-18T06:16:32.000Z,988.09
2023-01-18T06:17:32.668Z,988.09
2023-01-18T06:18:33.433Z,988.15
2023-01-18T06:19:33.384Z,988.14
2023-01-18T06:20:32.517Z,988.16
2023-01-18T06:21:32.612Z,988.17
2023-01-18T06:22:33.780Z,988.18
2023-01-18T06:23:34.534Z,988.22
2023-01-18T06:24:34.790Z,988.21
2023-01-18T06:25:33.251Z,988.25
2023-01-18T06:26:33.372Z,988.28
2023-01-18T06:27:33.500Z,988.29
2023-01-18T06:28:34.757Z,988.27
2023-01-18T06:29:33.753Z,988.26
2023-01-18T06:30:35.016Z,988.28
2023-01-18T06:31:34.086Z,988.30
2023-01-18T06:32:34.157Z,988.27
2023-01-18T06:33:34.322Z,988.32
2023-01-18T06:34:35.417Z,988.34
2023-01-18T06:35:37.564Z,988.36
2023-01-18T06:36:35.919Z,988.38
2023-01-18T06:37:34.866Z,988.39
2023-01-18T06:38:36.128Z,988.40
2023-01-18T06:39:36.132Z,988.43
2023-01-18T06:40:35.321Z,988.46
2023-01-18T06:41:37.066Z,988.46
2023-01-18T06:42:35.625Z,988.43
2023-01-18T06:43:36.765Z,988.51
2023-01-18T06:44:35.878Z,988.47
2023-01-18T06:45:38.176Z,988.52
2023-01-18T06:46:36.163Z,988.49
2023-01-18T06:47:36.426Z,988.51
2023-01-18T06:48:38.088Z,988.53
2023-01-18T06:49:37.235Z,988.51
2023-01-18T06:50:37.905Z,988.51
2023-01-18T06:51:36.822Z,988.52
2023-01-18T06:52:37.887Z,988.54
2023-01-18T06:53:38.096Z,988.54
2023-01-18T06:54:38.262Z,988.59
2023-01-18T06:55:38.524Z,988.60
2023-01-18T06:56:37.557Z,988.63
2023-01-18T06:57:38.643Z,988.65
2023-01-18T06:58:39.512Z,988.67
2023-01-18T06:59:37.832Z,988.69
2023-01-18T07:00:38.701Z,988.71
2023-01-18T07:01:38.536Z,988.72
2023-01-18T07:02:40.741Z,988.72
2023-01-18T07:03:40.240Z,988.70
2023-01-18T07:04:39.377Z,988.70
2023-01-18T07:05:39.521Z,988.75
2023-01-18T07:06:40.390Z,988.76
2023-01-18T07:07:38.787Z,988.77
2023-01-18T07:08:39.001Z,988.86
2023-01-18T07:09:39.009Z,988.86
2023-01-18T07:10:39.137Z,988.90
2023-01-18T07:11:41.858Z,988.84
2023-01-18T07:12:39.411Z,988.94
2023-01-18T07:13:40.480Z,988.92
2023-01-18T07:14:40.701Z,988.92
2023-01-18T07:15:40.931Z,988.93
2023-01-18T07:16:41.720Z,988.97
2023-01-18T07:17:40.087Z,989.01
2023-01-18T07:18:43.318Z,989.00
2023-01-18T07:19:40.982Z,989.03
2023-01-18T07:20:42.137Z,989.00
2023-01-18T07:21:42.031Z,989.04
2023-01-18T07:22:41.694Z,989.12
2023-01-18T07:23:42.498Z,989.10
2023-01-18T07:24:41.953Z,989.07
2023-01-18T07:25:42.696Z,989.07
2023-01-18T07:26:42.933Z,989.12
2023-01-18T07:27:41.277Z,989.17
2023-01-18T07:28:43.063Z,989.16
2023-01-18T07:29:41.517Z,989.16
2023-01-18T07:30:41.668Z,989.16
2023-01-18T07:31:43.470Z,989.13
2023-01-18T07:32:42.027Z,989.18
2023-01-18T07:33:43.017Z,989.19
2023-01-18T07:34:43.215Z,989.15
2023-01-18T07:35:42.353Z,989.24
2023-01-18T07:36:44.121Z,989.22
2023-01-18T07:37:44.427Z,989.21
2023-01-18T07:38:42.812Z,989.25
2023-01-18T07:39:44.693Z,989.26
2023-01-18T07:40:43.196Z,989.24
2023-01-18T07:41:45.012Z,989.24
2023-01-18T07:42:45.263Z,989.25
2023-01-18T07:43:46.896Z,989.27
2023-01-18T07:44:44.484Z,989.29
2023-01-18T07:45:43.712Z,989.33
2023-01-18T07:46:43.814Z,989.30
2023-01-18T07:47:45.718Z,989.32
2023-01-18T07:48:44.099Z,989.31
2023-01-18T07:49:47.072Z,989.30
2023-01-18T07:50:44.385Z,989.33
2023-01-18T07:51:46.254Z,989.39
2023-01-18T07:52:47.973Z,989.33
2023-01-18T07:53:44.784Z,989.40
2023-01-18T07:54:46.581Z,989.39
2023-01-18T07:55:48.326Z,989.43
2023-01-18T07:56:45.307Z,989.44
2023-01-18T07:57:47.933Z,989.47
2023-01-18T07:58:46.201Z,989.47
2023-01-18T07:59:47.261Z,989.47
2023-01-18T08:00:47.669Z,989.51
2023-01-18T08:01:49.328Z,989.58
2023-01-18T08:02:47.904Z,989.57
2023-01-18T08:03:51.920Z,989.56
2023-01-18T08:04:47.699Z,989.55
2023-01-18T08:05:48.036Z,989.60
2023-01-18T08:06:49.730Z,989.60
2023-01-18T08:07:46.696Z,989.60
2023-01-18T08:08:49.372Z,989.63
2023-01-18T08:09:49.675Z,989.61
2023-01-18T08:10:46.979Z,989.60
2023-01-18T08:11:48.760Z,989.65
2023-01-18T08:12:47.315Z,989.62
2023-01-18T08:13:49.099Z,989.65
2023-01-18T08:14:49.406Z,989.65
2023-01-18T08:15:49.698Z,989.71
2023-01-18T08:16:49.435Z,989.69
2023-01-18T08:17:49.768Z,989.72
2023-01-18T08:18:53.038Z,989.75
2023-01-18T08:19:48.268Z,989.76
2023-01-18T08:20:53.195Z,989.75
2023-01-18T08:21:49.449Z,989.76
2023-01-18T08:22:51.179Z,989.77
2023-01-18T08:23:49.534Z,989.84
2023-01-18T08:24:50.381Z,989.83
2023-01-18T08:25:49.009Z,989.88
2023-01-18T08:26:49.078Z,989.88
2023-01-18T08:27:49.252Z,989.88
2023-01-18T08:28:50.177Z,989.89
2023-01-18T08:29:50.129Z,989.91
2023-01-18T08:30:49.748Z,989.91
2023-01-18T08:31:53.482Z,989.96
2023-01-18T08:32:50.419Z,989.98
2023-01-18T08:33:50.808Z,990.03
2023-01-18T08:34:53.406Z,990.01
2023-01-18T08:35:51.035Z,990.00
2023-01-18T08:36:52.660Z,990.10
2023-01-18T08:37:50.971Z,990.05
2023-01-18T08:38:50.694Z,990.05
2023-01-18T08:39:56.796Z,990.07
2023-01-18T08:40:50.965Z,990.04
2023-01-18T08:41:51.804Z,990.06
2023-01-18T08:42:52.918Z,990.01
2023-01-18T08:43:51.357Z,990.07
2023-01-18T08:44:52.281Z,990.12
2023-01-18T08:45:51.557Z,990.13
2023-01-18T08:46:54.796Z,990.11
2023-01-18T08:47:53.175Z,990.10
2023-01-18T08:48:51.912Z,990.12
2023-01-18T08:49:53.036Z,990.12
2023-01-18T08:50:52.165Z,990.16
2023-01-18T08:51:52.319Z,990.18
2023-01-18T08:52:54.175Z,990.19
2023-01-18T08:53:56.336Z,990.21
2023-01-18T08:54:52.738Z,990.23
2023-01-18T08:55:54.092Z,990.21
2023-01-18T08:56:56.753Z,990.34
2023-01-18T08:57:53.160Z,990.30
2023-01-18T08:58:55.902Z,990.30
2023-01-18T08:59:54.166Z,990.28
2023-01-18T09:00:54.433Z,990.31
2023-01-18T09:01:53.700Z,990.33
2023-01-18T09:02:53.771Z,990.35
2023-01-18T09:03:53.815Z,990.39
2023-01-18T09:04:54.601Z,990.39
2023-01-18T09:05:55.915Z,990.36
2023-01-18T09:06:57.119Z,990.31
2023-01-18T09:08:00.031Z,990.35
2023-01-18T09:08:54.427Z,990.37
2023-01-18T09:09:57.182Z,990.38
2023-01-18T09:10:57.521Z,990.39
2023-01-18T09:11:58.303Z,990.37
2023-01-18T09:12:58.434Z,990.42
2023-01-18T09:14:01.292Z,990.39
2023-01-18T09:14:55.221Z,990.39
2023-01-18T09:15:56.361Z,990.40
2023-01-18T09:16:56.948Z,990.41
2023-01-18T09:17:57.174Z,990.45
2023-01-18T09:18:57.564Z,990.41
2023-01-18T09:19:56.598Z,990.44
2023-01-18T09:20:57.490Z,990.41
2023-01-18T09:21:57.032Z,990.48
2023-01-18T09:23:00.710Z,990.48
2023-01-18T09:24:00.244Z,990.50
2023-01-18T09:24:57.410Z,990.55
2023-01-18T09:25:56.708Z,990.54
2023-01-18T09:26:58.749Z,990.60
2023-01-18T09:27:58.897Z,990.60
2023-01-18T09:28:58.315Z,990.62
2023-01-18T09:29:58.496Z,990.55
2023-01-18T09:31:01.857Z,990.55
2023-01-18T09:31:59.075Z,990.64
2023-01-18T09:32:59.929Z,990.65
2023-01-18T09:34:17.457Z,990.67
2023-01-18T09:35:09.439Z,990.70
2023-01-18T09:35:58.637Z,990.68
2023-01-18T09:36:58.034Z,990.73
2023-01-18T09:37:59.880Z,990.77
2023-01-18T09:38:59.226Z,990.77
2023-01-18T09:39:59.289Z,990.76
2023-01-18T09:40:59.447Z,990.77
2023-01-18T09:41:58.751Z,990.78
2023-01-18T09:43:01.319Z,990.78
2023-01-18T09:43:59.855Z,990.83
2023-01-18T09:44:59.076Z,990.84
2023-01-18T09:45:59.986Z,990.84
2023-01-18T09:46:59.368Z,990.87
2023-01-18T09:48:01.117Z,990.89
2023-01-18T09:49:00.891Z,990.92
2023-01-18T09:49:59.693Z,990.89
2023-01-18T09:50:59.972Z,990.91
2023-01-18T09:51:59.920Z,990.95
2023-01-18T09:53:02.100Z,990.96
2023-01-18T09:54:00.193Z,990.95
2023-01-18T09:55:00.241Z,990.95
2023-01-18T09:56:01.072Z,991.00
2023-01-18T09:57:02.264Z,991.00
2023-01-18T09:58:00.614Z,990.96
2023-01-18T09:59:01.702Z,991.02
2023-01-18T10:00:01.780Z,991.05
2023-01-18T10:01:01.953Z,991.06
2023-01-18T10:02:02.224Z,991.05
2023-01-18T10:13:27.559Z,991.10
2023-01-18T10:14:26.275Z,991.10
2023-01-18T10:15:28.176Z,991.02
2023-01-18T10:16:26.732Z,991.06
2023-01-18T10:17:26.635Z,991.08
2023-01-18T10:18:28.634Z,991.11
2023-01-18T10:19:28.482Z,991.13
2023-01-18T10:20:27.905Z,991.15
2023-01-18T10:21:28.767Z,991.21
2023-01-18T10:22:27.234Z,991.16
2023-01-18T10:23:28.334Z,991.17
2023-01-18T10:24:27.522Z,991.22
2023-01-18T10:25:28.757Z,991.21
2023-01-18T10:26:28.728Z,991.15
2023-01-18T10:27:30.610Z,991.18
2023-01-18T10:28:29.420Z,991.18
2023-01-18T10:29:28.897Z,991.13
2023-01-18T10:30:35.161Z,991.21
2023-01-18T10:31:31.819Z,991.14
2023-01-18T10:32:28.911Z,991.13
2023-01-18T10:33:29.600Z,991.16
2023-01-18T10:34:30.009Z,991.16
2023-01-18T10:35:32.930Z,991.16
2023-01-18T10:36:35.219Z,991.20
2023-01-18T10:37:32.391Z,991.19
2023-01-18T10:38:31.603Z,991.24
2023-01-18T10:39:31.315Z,991.21
2023-01-18T10:40:29.851Z,991.20
2023-01-18T10:41:31.503Z,991.24
2023-01-18T10:42:32.712Z,991.23
2023-01-18T10:43:29.951Z,991.24
2023-01-18T10:44:30.770Z,991.24
2023-01-18T10:45:30.288Z,991.28
2023-01-18T10:46:30.332Z,991.29
2023-01-18T10:47:34.511Z,991.29
2023-01-18T10:48:31.419Z,991.32
2023-01-18T10:49:30.799Z,991.28
2023-01-18T10:50:32.560Z,991.32
2023-01-18T10:51:35.601Z,991.31
2023-01-18T10:52:31.110Z,991.35
2023-01-18T10:53:31.270Z,991.33
2023-01-18T10:54:31.407Z,991.30
2023-01-18T10:55:34.640Z,991.32
2023-01-18T10:56:31.765Z,991.29
2023-01-18T10:57:32.781Z,991.31
2023-01-18T10:58:34.552Z,991.35
2023-01-18T10:59:32.067Z,991.31
2023-01-18T11:00:34.101Z,991.36
2023-01-18T11:01:32.444Z,991.33
2023-01-18T11:02:32.464Z,991.38
2023-01-18T11:03:34.437Z,991.36
2023-01-18T11:04:33.207Z,991.37
2023-01-18T11:05:32.776Z,991.39
2023-01-18T11:06:35.829Z,991.34
2023-01-18T11:07:33.035Z,991.37
2023-01-18T11:08:34.225Z,991.36
2023-01-18T11:09:33.256Z,991.39
2023-01-18T11:10:33.367Z,991.39
2023-01-18T11:11:34.341Z,991.40
2023-01-18T11:12:35.323Z,991.43
2023-01-18T11:13:33.705Z,991.34
2023-01-18T11:14:33.911Z,991.41
2023-01-18T11:15:35.983Z,991.38
2023-01-18T11:16:35.203Z,991.37
2023-01-18T11:17:36.378Z,991.40
2023-01-18T11:18:38.096Z,991.41
2023-01-18T11:19:35.381Z,991.39
2023-01-18T11:20:35.277Z,991.37
2023-01-18T11:21:36.434Z,991.38
2023-01-18T11:22:36.665Z,991.37
2023-01-18T11:23:36.451Z,991.37
2023-01-18T11:24:35.068Z,991.36
2023-01-18T11:25:36.824Z,991.37
2023-01-18T11:26:35.308Z,991.33
2023-01-18T11:27:37.389Z,991.35
2023-01-18T11:28:37.120Z,991.37
2023-01-18T11:29:35.711Z,991.34
2023-01-18T11:30:37.671Z,991.34
2023-01-18T11:31:36.099Z,991.34
2023-01-18T11:32:37.044Z,991.33
2023-01-18T11:33:40.050Z,991.30
2023-01-18T11:34:36.848Z,991.31
2023-01-18T11:35:36.513Z,991.32
2023-01-18T11:36:37.318Z,991.33
2023-01-18T11:37:37.717Z,991.35
2023-01-18T11:38:38.578Z,991.30
2023-01-18T11:39:37.794Z,991.26
2023-01-18T11:40:38.799Z,991.30
2023-01-18T11:41:37.271Z,991.24
2023-01-18T11:42:40.134Z,991.27
2023-01-18T11:43:37.536Z,991.24
2023-01-18T11:44:39.351Z,991.28
2023-01-18T11:45:37.840Z,991.24
2023-01-18T11:46:39.700Z,991.29
2023-01-18T11:47:38.970Z,991.21
2023-01-18T11:48:40.720Z,991.28
2023-01-18T11:49:40.010Z,991.24
2023-01-18T11:50:38.438Z,991.24
2023-01-18T11:51:41.249Z,991.22
2023-01-18T11:52:38.619Z,991.23
2023-01-18T11:53:40.364Z,991.22
2023-01-18T11:54:40.637Z,991.27
2023-01-18T11:55:38.937Z,991.24
2023-01-18T11:56:40.809Z,991.25
2023-01-18T11:57:43.369Z,991.28
2023-01-18T11:58:41.877Z,991.29
2023-01-18T11:59:42.174Z,991.25
2023-01-18T12:00:41.441Z,991.27
2023-01-18T12:01:41.199Z,991.27
2023-01-18T12:02:41.473Z,991.24
2023-01-18T12:03:41.141Z,991.33
2023-01-18T12:04:40.216Z,991.27
2023-01-18T12:05:45.786Z,991.28
2023-01-18T12:06:40.375Z,991.27
2023-01-18T12:07:40.463Z,991.28
2023-01-18T12:08:41.406Z,991.23
2023-01-18T12:09:40.787Z,991.27
2023-01-18T12:10:43.436Z,991.25
2023-01-18T12:11:41.153Z,991.28
2023-01-18T12:12:44.285Z,991.24
2023-01-18T12:13:43.238Z,991.26
2023-01-18T12:14:43.111Z,991.30
2023-01-18T12:15:42.295Z,991.26
2023-01-18T12:16:42.056Z,991.30
2023-01-18T12:17:46.322Z,991.29
2023-01-18T12:18:43.768Z,991.25
2023-01-18T12:19:43.705Z,991.36
2023-01-18T12:20:44.514Z,991.32
2023-01-18T12:21:42.207Z,991.37
2023-01-18T12:22:43.126Z,991.35
2023-01-18T12:23:44.332Z,991.32
2023-01-18T12:24:45.785Z,991.30
2023-01-18T12:25:42.725Z,991.37
2023-01-18T12:26:46.040Z,991.32
2023-01-18T12:27:43.687Z,991.33
2023-01-18T12:28:44.099Z,991.39
2023-01-18T12:29:44.257Z,991.42
2023-01-18T12:30:44.245Z,991.42
2023-01-18T12:31:46.093Z,991.39
2023-01-18T12:32:43.619Z,991.42
2023-01-18T12:33:44.228Z,991.36
2023-01-18T12:34:43.931Z,991.41
2023-01-18T12:35:44.152Z,991.39
2023-01-18T12:36:45.864Z,991.38
2023-01-18T12:37:47.042Z,991.41
2023-01-18T12:38:45.185Z,991.38
2023-01-18T12:39:45.351Z,991.34
2023-01-18T12:40:46.347Z,991.35
2023-01-18T12:41:46.626Z,991.31
2023-01-18T12:42:46.871Z,991.35
2023-01-18T12:43:45.069Z,991.29
2023-01-18T12:44:46.834Z,991.28
2023-01-18T12:45:47.113Z,991.24
2023-01-18T12:46:48.834Z,991.25
2023-01-18T12:47:46.611Z,991.21
2023-01-18T12:48:48.380Z,991.27
2023-01-18T12:49:47.741Z,991.27
2023-01-18T12:50:48.008Z,991.29
2023-01-18T12:51:47.748Z,991.26
2023-01-18T12:52:48.000Z,991.26
2023-01-18T12:53:48.302Z,991.23
2023-01-18T12:54:48.065Z,991.28
2023-01-18T12:55:46.763Z,991.24
2023-01-18T12:56:46.800Z,991.25
2023-01-18T12:57:48.104Z,991.26
2023-01-18T12:58:47.129Z,991.25
2023-01-18T12:59:47.300Z,991.30
2023-01-18T13:00:47.375Z,991.31
2023-01-18T13:01:47.562Z,991.29
2023-01-18T13:02:49.284Z,991.26
2023-01-18T13:03:47.742Z,991.26
2023-01-18T13:04:48.451Z,991.32
2023-01-18T13:05:50.935Z,991.36
2023-01-18T13:06:48.108Z,991.32
2023-01-18T13:07:48.293Z,991.32
2023-01-18T13:08:49.224Z,991.38
2023-01-18T13:09:48.552Z,991.37
2023-01-18T13:10:49.278Z,991.34
2023-01-18T13:11:48.728Z,991.31
2023-01-18T13:12:48.899Z,991.29
2023-01-18T13:13:50.634Z,991.30
2023-01-18T13:14:49.160Z,991.37
2023-01-18T13:15:50.982Z,991.34
2023-01-18T13:16:51.243Z,991.38
2023-01-18T13:17:51.483Z,991.40
2023-01-18T13:18:51.240Z,991.40
2023-01-18T13:19:52.498Z,991.43
2023-01-18T13:20:49.986Z,991.42
2023-01-18T13:21:52.660Z,991.43
2023-01-18T13:22:50.235Z,991.41
2023-01-18T13:23:50.434Z,991.45
2023-01-18T13:24:50.506Z,991.39
2023-01-18T13:25:50.631Z,991.45
2023-01-18T13:26:52.445Z,991.47
2023-01-18T13:27:50.852Z,991.45
2023-01-18T13:28:50.973Z,991.49
2023-01-18T13:29:51.108Z,991.48
2023-01-18T13:30:51.300Z,991.50
2023-01-18T13:31:53.080Z,991.54
2023-01-18T13:32:53.321Z,991.57
2023-01-18T13:33:51.675Z,991.60
2023-01-18T13:34:51.899Z,991.57
2023-01-18T13:35:51.914Z,991.54
2023-01-18T13:37:02.500Z,991.56
2023-01-18T13:37:56.528Z,991.52
2023-01-18T13:38:52.277Z,991.53
2023-01-18T13:39:54.045Z,991.54
2023-01-18T13:40:52.571Z,991.51
2023-01-18T13:41:52.673Z,991.52
2023-01-18T13:42:52.920Z,991.52
2023-01-18T13:43:54.585Z,991.53
2023-01-18T13:44:53.112Z,991.50
2023-01-18T13:45:53.297Z,991.58
2023-01-18T13:46:53.399Z,991.58
2023-01-18T13:47:53.503Z,991.53
2023-01-18T13:48:54.313Z,991.51
2023-01-18T13:49:53.805Z,991.55
2023-01-18T13:50:53.996Z,991.56
2023-01-18T13:51:54.061Z,991.51
2023-01-18T13:52:54.962Z,991.57
2023-01-18T13:53:55.128Z,991.55
2023-01-18T13:54:56.306Z,991.58
2023-01-18T13:55:57.975Z,991.57
2023-01-18T13:56:56.669Z,991.60
2023-01-18T13:57:55.796Z,991.62
2023-01-18T13:58:56.620Z,991.62
2023-01-18T13:59:56.082Z,991.66
2023-01-18T14:00:56.952Z,991.69
2023-01-18T14:01:57.232Z,991.68
2023-01-18T14:02:56.562Z,991.68
2023-01-18T14:03:57.328Z,991.64
2023-01-18T14:04:56.619Z,991.68
2023-01-18T14:05:56.031Z,991.64
2023-01-18T14:06:59.182Z,991.69
2023-01-18T14:07:57.111Z,991.72
2023-01-18T14:08:56.374Z,991.71
2023-01-18T14:09:56.505Z,991.75
2023-01-18T14:10:56.650Z,991.82
2023-01-18T14:11:58.533Z,991.75
2023-01-18T14:12:57.320Z,991.76
2023-01-18T14:13:57.299Z,991.76
2023-01-18T14:14:57.975Z,991.81
2023-01-18T14:15:59.159Z,991.77
2023-01-18T14:16:59.181Z,991.78
2023-01-18T14:17:59.119Z,991.82
2023-01-18T14:18:57.703Z,991.85
2023-01-18T14:19:57.819Z,991.85
2023-01-18T14:20:59.708Z,991.89
2023-01-18T14:21:58.093Z,991.88
2023-01-18T14:22:58.444Z,991.91
2023-01-18T14:23:59.957Z,991.91
2023-01-18T14:24:58.424Z,991.92
2023-01-18T14:26:00.515Z,991.99
2023-01-18T14:26:59.664Z,991.99
2023-01-18T14:28:00.464Z,991.97
2023-01-18T14:29:00.720Z,992.03
2023-01-18T14:29:59.861Z,992.01
2023-01-18T14:31:01.879Z,992.05
2023-01-18T14:32:00.392Z,992.03
2023-01-18T14:33:00.820Z,992.09
2023-01-18T14:33:59.719Z,992.12
2023-01-18T14:35:01.690Z,992.05
2023-01-18T14:36:00.945Z,992.11
2023-01-18T14:37:00.727Z,992.15
2023-01-18T14:38:16.571Z,992.11
2023-01-18T14:39:01.306Z,992.06
2023-01-18T14:40:02.107Z,992.10
2023-01-18T14:41:02.870Z,992.17
2023-01-18T14:42:02.355Z,992.12
2023-01-18T14:43:01.207Z,992.11
2023-01-18T14:44:00.979Z,992.08
2023-01-18T14:45:01.072Z,992.07
2023-01-18T14:46:01.922Z,992.13
2023-01-18T14:47:18.681Z,992.11
2023-01-18T14:48:02.466Z,992.13
2023-01-18T14:49:01.571Z,992.11
2023-01-18T14:50:01.684Z,992.16
2023-01-18T14:51:02.856Z,992.11
2023-01-18T14:52:03.644Z,992.15
2023-01-18T14:53:02.103Z,992.11
2023-01-18T14:54:04.724Z,992.12
2023-01-18T14:55:05.100Z,992.16
2023-01-18T14:56:03.247Z,992.18
2023-01-18T14:57:05.212Z,992.18
2023-01-18T14:58:05.505Z,992.19
2023-01-18T14:59:03.733Z,992.19
2023-01-18T15:00:03.964Z,992.23
2023-01-18T15:01:04.189Z,992.23
2023-01-18T15:02:04.264Z,992.20
2023-01-18T15:03:06.064Z,992.23
2023-01-18T15:04:05.366Z,992.21
2023-01-18T15:05:05.617Z,992.22
2023-01-18T15:06:04.851Z,992.22
2023-01-18T15:07:05.018Z,992.21
2023-01-18T15:08:07.291Z,992.16
2023-01-18T15:09:05.332Z,992.22
2023-01-18T15:10:06.181Z,992.25
2023-01-18T15:11:05.407Z,992.27
2023-01-18T15:12:05.592Z,992.23
2023-01-18T15:13:05.722Z,992.25
2023-01-18T15:14:06.731Z,992.18
2023-01-18T15:15:06.261Z,992.23
2023-01-18T15:16:06.381Z,992.19
2023-01-18T15:17:06.609Z,992.19
2023-01-18T15:18:06.519Z,992.25
2023-01-18T15:19:07.389Z,992.23
2023-01-18T15:20:07.649Z,992.21
2023-01-18T15:21:06.745Z,992.25
2023-01-18T15:22:08.424Z,992.25
2023-01-18T15:23:07.059Z,992.21
2023-01-18T15:24:08.035Z,992.26
2023-01-18T15:25:08.258Z,992.25
2023-01-18T15:26:06.667Z,992.24
2023-01-18T15:27:07.697Z,992.21
2023-01-18T15:28:22.734Z,992.23
2023-01-18T15:29:08.796Z,992.21
2023-01-18T15:30:08.827Z,992.26
2023-01-18T15:31:09.987Z,992.26
2023-01-18T15:32:09.275Z,992.24
2023-01-18T15:33:08.591Z,992.26
2023-01-18T15:34:08.704Z,992.30
2023-01-18T15:35:08.746Z,992.33
2023-01-18T15:36:08.977Z,992.33
2023-01-18T15:37:09.745Z,992.28
2023-01-18T15:38:08.237Z,992.29
2023-01-18T15:39:08.327Z,992.34
2023-01-18T15:40:08.535Z,992.33
2023-01-18T15:41:11.086Z,992.30
2023-01-18T15:42:10.497Z,992.35
2023-01-18T15:43:08.874Z,992.33
2023-01-18T15:44:09.036Z,992.29
2023-01-18T15:45:09.138Z,992.37
2023-01-18T15:46:10.940Z,992.32
2023-01-18T15:47:10.459Z,992.31
2023-01-18T15:48:09.505Z,992.30
2023-01-18T15:49:09.654Z,992.35
2023-01-18T15:50:09.768Z,992.29
2023-01-18T15:51:12.030Z,992.29
2023-01-18T15:52:11.811Z,992.28
2023-01-18T15:53:10.095Z,992.30
2023-01-18T15:54:10.398Z,992.32
2023-01-18T15:55:11.999Z,992.32
2023-01-18T15:56:12.277Z,992.37
2023-01-18T15:57:12.521Z,992.36
2023-01-18T15:58:12.795Z,992.41
2023-01-18T15:59:12.547Z,992.39
2023-01-18T16:00:11.085Z,992.47
2023-01-18T16:01:13.816Z,992.42
2023-01-18T16:12:40.298Z,992.55
2023-01-18T16:13:40.605Z,992.53
2023-01-18T16:14:40.594Z,992.49
2023-01-18T16:15:40.892Z,992.51
2023-01-18T16:16:39.948Z,992.44
2023-01-18T16:17:41.635Z,992.48
2023-01-18T16:18:41.917Z,992.57
2023-01-18T16:19:41.244Z,992.59
2023-01-18T16:20:41.415Z,992.56
2023-01-18T16:21:40.576Z,992.56
2023-01-18T16:22:41.655Z,992.52
2023-01-18T16:23:41.927Z,992.61
2023-01-18T16:24:40.969Z,992.58
2023-01-18T16:25:41.056Z,992.53
2023-01-18T16:26:42.828Z,992.55
2023-01-18T16:27:41.442Z,992.56
2023-01-18T16:28:41.543Z,992.53
2023-01-18T16:29:43.211Z,992.47
2023-01-18T16:30:43.464Z,992.51
2023-01-18T16:31:41.914Z,992.50
2023-01-18T16:32:42.041Z,992.56
2023-01-18T16:33:42.171Z,992.51
2023-01-18T16:34:42.321Z,992.52
2023-01-18T16:35:43.616Z,992.54
2023-01-18T16:36:44.354Z,992.57
2023-01-18T16:37:42.693Z,992.53
2023-01-18T16:38:42.876Z,992.55
2023-01-18T16:39:43.002Z,992.56
2023-01-18T16:40:45.102Z,992.60
2023-01-18T16:41:43.255Z,992.64
2023-01-18T16:42:43.431Z,992.60
2023-01-18T16:43:44.521Z,992.57
2023-01-18T16:44:45.292Z,992.61
2023-01-18T16:45:43.869Z,992.61
2023-01-18T16:46:45.742Z,992.65
2023-01-18T16:47:45.191Z,992.72
2023-01-18T16:48:45.353Z,992.72
2023-01-18T16:49:45.596Z,992.73